createdAt,value
2019-02-07T00:00:02.763Z,100678.88
2019-02-07T00:01:08.364Z,100678.63
2019-02-07T00:02:11.964Z,100668.22
2019-02-07T00:03:15.721Z,100664.41
2019-02-07T00:04:19.372Z,100668.78
2019-02-07T00:05:22.926Z,100673.20
2019-02-07T00:06:26.496Z,100669.66
2019-02-07T00:07:30.111Z,100667.22
2019-02-07T00:08:33.677Z,100667.53
2019-02-07T00:09:37.235Z,100662.05
2019-02-07T00:10:40.837Z,100661.77
2019-02-07T00:11:44.454Z,100658.47
2019-02-07T00:12:48.222Z,100654.10
2019-02-07T00:13:52.137Z,100663.70
2019-02-07T00:14:56.360Z,100648.12
2019-02-07T00:16:00.017Z,100654.41
2019-02-07T00:17:03.643Z,100644.81
2019-02-07T00:18:07.473Z,100642.94
2019-02-07T00:19:11.112Z,100639.95
2019-02-07T00:20:19.807Z,100635.83
2019-02-07T00:21:23.361Z,100628.98
2019-02-07T00:22:26.876Z,100627.61
2019-02-07T00:23:30.481Z,100627.92
2019-02-07T00:24:42.517Z,100617.51
2019-02-07T00:25:39.445Z,100615.58
2019-02-07T00:26:43.087Z,100618.88
2019-02-07T00:27:46.843Z,100614.27
2019-02-07T00:28:50.427Z,100614.52
2019-02-07T00:29:54.189Z,100612.65
2019-02-07T00:30:57.796Z,100609.34
2019-02-07T00:32:01.411Z,100612.90
2019-02-07T00:33:05.220Z,100609.34
2019-02-07T00:34:08.896Z,100602.80
2019-02-07T00:35:12.684Z,100604.17
2019-02-07T00:36:16.430Z,100599.81
2019-02-07T00:37:19.955Z,100597.38
2019-02-07T00:38:23.639Z,100597.06
2019-02-07T00:39:27.233Z,100592.70
2019-02-07T00:40:30.889Z,100596.01
2019-02-07T00:41:34.543Z,100588.31
2019-02-07T00:42:38.198Z,100582.02
2019-02-07T00:43:42.138Z,100581.20
2019-02-07T00:44:50.527Z,100590.56
2019-02-07T00:45:51.688Z,100583.98
2019-02-07T00:46:55.299Z,100582.61
2019-02-07T00:47:58.974Z,100573.58
2019-02-07T00:49:02.649Z,100568.66
2019-02-07T00:50:09.082Z,100575.27
2019-02-07T00:51:12.681Z,100568.72
2019-02-07T00:52:16.313Z,100564.04
2019-02-07T00:53:19.973Z,100567.34
2019-02-07T00:54:23.640Z,100564.67
2019-02-07T00:55:27.369Z,100563.23
2019-02-07T00:56:31.037Z,100558.06
2019-02-07T00:57:34.562Z,100563.80
2019-02-07T00:58:38.182Z,100555.32
2019-02-07T00:59:42.315Z,100549.02
2019-02-07T01:00:45.868Z,100538.05
2019-02-07T01:01:49.519Z,100530.14
2019-02-07T01:02:53.273Z,100535.06
2019-02-07T01:03:56.970Z,100530.70
2019-02-07T01:05:00.597Z,100527.40
2019-02-07T01:06:04.442Z,100527.96
2019-02-07T01:07:08.335Z,100531.27
2019-02-07T01:08:12.269Z,100529.08
2019-02-07T01:09:15.872Z,100525.28
2019-02-07T01:10:27.528Z,100530.49
2019-02-07T01:11:31.185Z,100524.73
2019-02-07T01:12:34.813Z,100527.47
2019-02-07T01:13:38.471Z,100520.36
2019-02-07T01:14:42.447Z,100527.22
2019-02-07T01:15:46.398Z,100523.64
2019-02-07T01:16:49.899Z,100522.27
2019-02-07T01:17:53.725Z,100526.38
2019-02-07T01:18:57.204Z,100519.27
2019-02-07T01:20:00.992Z,100515.72
2019-02-07T01:21:04.694Z,100515.16
2019-02-07T01:22:08.410Z,100514.67
2019-02-07T01:23:12.076Z,100519.59
2019-02-07T01:24:15.780Z,100511.12
2019-02-07T01:25:23.983Z,100505.39
2019-02-07T01:26:27.613Z,100501.91
2019-02-07T01:27:31.121Z,100501.91
2019-02-07T01:28:34.785Z,100504.40
2019-02-07T01:29:38.444Z,100495.67
2019-02-07T01:30:42.464Z,100499.79
2019-02-07T01:31:46.094Z,100494.13
2019-02-07T01:32:49.724Z,100496.80
2019-02-07T01:33:53.437Z,100496.30
2019-02-07T01:34:57.063Z,100499.33
2019-02-07T01:36:00.830Z,100500.14
2019-02-07T01:37:04.537Z,100492.23
2019-02-07T01:38:08.209Z,100492.79
2019-02-07T01:39:11.774Z,100489.80
2019-02-07T01:40:17.560Z,100490.36
2019-02-07T01:41:21.215Z,100495.28
2019-02-07T01:42:24.856Z,100499.15
2019-02-07T01:43:28.425Z,100492.05
2019-02-07T01:44:32.334Z,100490.68
2019-02-07T01:45:35.939Z,100490.12
2019-02-07T01:46:39.458Z,100485.20
2019-02-07T01:47:43.137Z,100481.64
2019-02-07T01:48:46.634Z,100481.08
2019-02-07T01:49:50.270Z,100479.71
2019-02-07T01:50:53.972Z,100479.71
2019-02-07T01:51:57.605Z,100475.36
2019-02-07T01:53:01.599Z,100473.17
2019-02-07T01:54:05.433Z,100471.80
2019-02-07T01:55:09.271Z,100471.24
2019-02-07T01:56:12.862Z,100476.48
2019-02-07T01:57:16.370Z,100472.67
2019-02-07T01:58:20.236Z,100465.27
2019-02-07T01:59:23.819Z,100466.63
2019-02-07T02:00:27.861Z,100464.45
2019-02-07T02:01:31.430Z,100463.09
2019-02-07T02:02:34.944Z,100461.47
2019-02-07T02:03:38.511Z,100466.70
2019-02-07T02:04:42.104Z,100459.29
2019-02-07T02:05:45.607Z,100458.72
2019-02-07T02:06:49.241Z,100450.25
2019-02-07T02:07:52.747Z,100455.73
2019-02-07T02:08:56.379Z,100452.19
2019-02-07T02:09:59.927Z,100450.01
2019-02-07T02:11:05.048Z,100446.46
2019-02-07T02:12:09.077Z,100448.64
2019-02-07T02:13:12.959Z,100442.34
2019-02-07T02:14:16.638Z,100436.94
2019-02-07T02:15:25.277Z,100439.36
2019-02-07T02:16:26.841Z,100436.63
2019-02-07T02:17:30.409Z,100433.63
2019-02-07T02:18:34.026Z,100422.67
2019-02-07T02:19:37.736Z,100430.89
2019-02-07T02:20:41.320Z,100431.70
2019-02-07T02:21:44.986Z,100426.78
2019-02-07T02:22:48.735Z,100421.55
2019-02-07T02:23:52.373Z,100427.02
2019-02-07T02:24:56.043Z,100422.67
2019-02-07T02:25:59.689Z,100422.67
2019-02-07T02:27:03.811Z,100412.55
2019-02-07T02:28:07.952Z,100410.05
2019-02-07T02:29:11.596Z,100411.98
2019-02-07T02:30:23.701Z,100405.70
2019-02-07T02:31:27.416Z,100404.08
2019-02-07T02:32:31.088Z,100392.06
2019-02-07T02:33:34.653Z,100391.50
2019-02-07T02:34:38.228Z,100389.32
2019-02-07T02:35:41.967Z,100388.52
2019-02-07T02:36:45.608Z,100385.77
2019-02-07T02:37:49.363Z,100385.77
2019-02-07T02:38:53.047Z,100376.50
2019-02-07T02:39:56.616Z,100374.56
2019-02-07T02:41:00.304Z,100373.75
2019-02-07T02:42:04.109Z,100378.67
2019-02-07T02:43:07.954Z,100375.69
2019-02-07T02:44:11.705Z,100372.95
2019-02-07T02:45:20.363Z,100374.07
2019-02-07T02:46:23.964Z,100369.40
2019-02-07T02:47:27.514Z,100364.23
2019-02-07T02:48:31.140Z,100374.63
2019-02-07T02:49:34.803Z,100368.91
2019-02-07T02:50:38.284Z,100368.34
2019-02-07T02:51:42.043Z,100363.42
2019-02-07T02:52:45.912Z,100361.81
2019-02-07T02:53:50.932Z,100364.80
2019-02-07T02:54:54.449Z,100355.27
2019-02-07T02:55:58.381Z,100353.34
2019-02-07T02:57:02.047Z,100356.08
2019-02-07T02:58:06.544Z,100348.67
2019-02-07T02:59:10.173Z,100342.94
2019-02-07T03:00:18.846Z,100348.42
2019-02-07T03:01:33.034Z,100339.64
2019-02-07T03:02:44.435Z,100342.94
2019-02-07T03:03:49.892Z,100339.95
2019-02-07T03:05:00.865Z,100339.95
2019-02-07T03:06:21.586Z,100335.84
2019-02-07T03:07:42.909Z,100332.61
2019-02-07T03:08:50.791Z,100331.48
2019-02-07T03:10:12.216Z,100332.86
2019-02-07T03:11:33.258Z,100324.39
2019-02-07T03:12:54.570Z,100325.77
2019-02-07T03:14:08.798Z,100323.55
2019-02-07T03:15:23.209Z,100323.88
2019-02-07T03:16:31.107Z,100319.77
2019-02-07T03:17:42.426Z,100319.27
2019-02-07T03:18:47.881Z,100315.66
2019-02-07T03:19:53.373Z,100309.92
2019-02-07T03:21:07.205Z,100312.42
2019-02-07T03:22:29.065Z,100312.42
2019-02-07T03:23:52.619Z,100305.33
2019-02-07T03:25:03.675Z,100313.30
2019-02-07T03:26:20.930Z,100300.72
2019-02-07T03:27:35.181Z,100297.17
2019-02-07T03:28:40.365Z,100299.92
2019-02-07T03:29:48.316Z,100300.48
2019-02-07T03:31:02.069Z,100299.11
2019-02-07T03:32:23.448Z,100297.73
2019-02-07T03:33:28.661Z,100292.26
2019-02-07T03:34:36.931Z,100288.95
2019-02-07T03:35:58.373Z,100288.39
2019-02-07T03:37:06.268Z,100284.53
2019-02-07T03:38:14.361Z,100281.23
2019-02-07T03:39:19.576Z,100284.21
2019-02-07T03:40:30.166Z,100273.57
2019-02-07T03:41:35.361Z,100271.64
2019-02-07T03:42:46.254Z,100272.20
2019-02-07T03:43:51.431Z,100274.63
2019-02-07T03:45:05.391Z,100269.46
2019-02-07T03:46:10.701Z,100273.81
2019-02-07T03:47:21.779Z,100263.98
2019-02-07T03:48:44.624Z,100272.45
2019-02-07T03:50:04.557Z,100268.09
2019-02-07T03:51:12.514Z,100266.16
2019-02-07T03:52:17.720Z,100263.98
2019-02-07T03:53:25.728Z,100261.48
2019-02-07T03:54:33.396Z,100259.80
2019-02-07T03:55:54.843Z,100261.41
2019-02-07T03:57:00.070Z,100252.06
2019-02-07T03:58:07.971Z,100247.67
2019-02-07T03:59:16.149Z,100237.44
2019-02-07T04:00:23.810Z,100234.31
2019-02-07T04:01:28.949Z,100234.23
2019-02-07T04:02:34.520Z,100229.80
2019-02-07T04:03:39.652Z,100226.13
2019-02-07T04:05:02.777Z,100221.95
2019-02-07T04:06:10.970Z,100233.08
2019-02-07T04:07:18.835Z,100228.73
2019-02-07T04:08:24.041Z,100224.73
2019-02-07T04:09:45.421Z,100222.00
2019-02-07T04:10:50.578Z,100218.33
2019-02-07T04:12:11.413Z,100219.16
2019-02-07T04:13:25.587Z,100217.34
2019-02-07T04:14:45.991Z,100214.59
2019-02-07T04:16:14.767Z,100213.47
2019-02-07T04:17:14.204Z,100217.20
2019-02-07T04:18:35.527Z,100214.13
2019-02-07T04:19:40.809Z,100212.04
2019-02-07T04:20:55.088Z,100215.33
2019-02-07T04:22:18.218Z,100213.63
2019-02-07T04:23:28.879Z,100212.78
2019-02-07T04:24:36.617Z,100206.52
2019-02-07T04:25:41.890Z,100203.34
2019-02-07T04:27:03.139Z,100199.46
2019-02-07T04:28:11.207Z,100193.58
2019-02-07T04:29:28.470Z,100189.50
2019-02-07T04:30:48.906Z,100186.56
2019-02-07T04:32:10.101Z,100184.70
2019-02-07T04:33:31.441Z,100188.39
2019-02-07T04:34:42.428Z,100183.52
2019-02-07T04:35:53.306Z,100177.14
2019-02-07T04:37:01.480Z,100184.02
2019-02-07T04:38:09.452Z,100180.03
2019-02-07T04:39:30.755Z,100177.19
2019-02-07T04:40:36.061Z,100178.59
2019-02-07T04:41:44.291Z,100181.34
2019-02-07T04:42:55.125Z,100183.53
2019-02-07T04:44:02.677Z,100181.81
2019-02-07T04:45:21.248Z,100184.73
2019-02-07T04:46:35.144Z,100174.88
2019-02-07T04:47:54.948Z,100180.61
2019-02-07T04:49:09.393Z,100175.69
2019-02-07T04:50:23.876Z,100163.45
2019-02-07T04:51:45.076Z,100170.22
2019-02-07T04:52:53.275Z,100171.83
2019-02-07T04:54:07.333Z,100167.94
2019-02-07T04:55:28.592Z,100175.15
2019-02-07T04:56:42.800Z,100166.09
2019-02-07T04:58:05.778Z,100172.63
2019-02-07T04:59:13.570Z,100163.71
2019-02-07T05:00:19.182Z,100157.88
2019-02-07T05:01:39.006Z,100165.95
2019-02-07T05:02:50.016Z,100163.55
2019-02-07T05:04:04.071Z,100158.45
2019-02-07T05:05:13.454Z,100157.58
2019-02-07T05:06:24.215Z,100150.03
2019-02-07T05:07:29.417Z,100143.85
2019-02-07T05:08:34.558Z,100140.97
2019-02-07T05:09:42.413Z,100145.56
2019-02-07T05:11:03.489Z,100139.13
2019-02-07T05:12:11.582Z,100143.95
2019-02-07T05:13:22.776Z,100146.58
2019-02-07T05:14:33.896Z,100149.33
2019-02-07T05:15:55.360Z,100143.66
2019-02-07T05:17:06.787Z,100135.98
2019-02-07T05:18:27.886Z,100139.53
2019-02-07T05:19:39.174Z,100129.64
2019-02-07T05:20:53.221Z,100130.66
2019-02-07T05:22:13.547Z,100131.13
2019-02-07T05:23:18.784Z,100121.03
2019-02-07T05:24:24.014Z,100118.59
2019-02-07T05:25:45.320Z,100122.14
2019-02-07T05:26:50.503Z,100121.50
2019-02-07T05:28:01.325Z,100121.16
2019-02-07T05:29:09.423Z,100116.94
2019-02-07T05:30:22.102Z,100111.91
2019-02-07T05:31:39.134Z,100118.11
2019-02-07T05:32:46.994Z,100110.66
2019-02-07T05:33:52.194Z,100106.36
2019-02-07T05:34:59.845Z,100103.84
2019-02-07T05:36:13.994Z,100105.63
2019-02-07T05:37:30.953Z,100102.18
2019-02-07T05:38:44.868Z,100104.13
2019-02-07T05:39:58.841Z,100102.63
2019-02-07T05:41:07.367Z,100109.02
2019-02-07T05:42:12.853Z,100101.11
2019-02-07T05:43:18.065Z,100106.95
2019-02-07T05:44:23.269Z,100103.06
2019-02-07T05:45:43.232Z,100090.69
2019-02-07T05:46:54.527Z,100092.40
2019-02-07T05:48:16.399Z,100093.67
2019-02-07T05:49:27.166Z,100085.55
2019-02-07T05:50:35.058Z,100077.09
2019-02-07T05:51:40.260Z,100077.48
2019-02-07T05:52:54.569Z,100073.37
2019-02-07T05:54:05.693Z,100076.22
2019-02-07T05:55:22.981Z,100076.77
2019-02-07T05:56:28.146Z,100071.59
2019-02-07T05:57:42.177Z,100073.08
2019-02-07T05:58:53.131Z,100070.43
2019-02-07T06:00:03.914Z,100074.09
2019-02-07T06:01:12.012Z,100075.33
2019-02-07T06:02:17.263Z,100070.74
2019-02-07T06:03:34.290Z,100062.00
2019-02-07T06:04:39.488Z,100057.51
2019-02-07T06:06:00.369Z,100057.14
2019-02-07T06:07:20.637Z,100054.27
2019-02-07T06:08:28.645Z,100054.33
2019-02-07T06:09:42.830Z,100055.47
2019-02-07T06:10:48.030Z,100057.75
2019-02-07T06:11:53.285Z,100055.20
2019-02-07T06:13:07.110Z,100048.11
2019-02-07T06:14:14.886Z,100046.83
2019-02-07T06:15:20.032Z,100043.59
2019-02-07T06:16:25.478Z,100037.05
2019-02-07T06:17:39.747Z,100038.42
2019-02-07T06:18:56.785Z,100045.77
2019-02-07T06:20:01.995Z,100036.64
2019-02-07T06:21:07.115Z,100036.44
2019-02-07T06:22:15.174Z,100039.32
2019-02-07T06:23:38.543Z,100042.20
2019-02-07T06:24:59.867Z,100038.03
2019-02-07T06:26:07.664Z,100032.25
2019-02-07T06:27:24.701Z,100025.84
2019-02-07T06:28:35.804Z,100028.28
2019-02-07T06:29:41.070Z,100016.53
2019-02-07T06:30:49.208Z,100018.83
2019-02-07T06:32:00.454Z,100024.22
2019-02-07T06:33:21.522Z,100020.56
2019-02-07T06:34:41.387Z,100018.84
2019-02-07T06:35:55.601Z,100023.67
2019-02-07T06:37:00.756Z,100018.66
2019-02-07T06:38:18.854Z,100019.42
2019-02-07T06:39:24.155Z,100023.20
2019-02-07T06:40:32.208Z,100021.94
2019-02-07T06:41:37.442Z,100018.72
2019-02-07T06:42:58.311Z,100026.17
2019-02-07T06:44:03.542Z,100015.63
2019-02-07T06:45:17.518Z,100021.13
2019-02-07T06:46:38.388Z,100021.94
2019-02-07T06:47:52.832Z,100020.56
2019-02-07T06:49:15.937Z,100019.42
2019-02-07T06:50:27.345Z,100025.24
2019-02-07T06:51:35.427Z,100014.64
2019-02-07T06:52:46.373Z,100015.83
2019-02-07T06:53:51.614Z,100008.23
2019-02-07T06:55:05.593Z,100020.66
2019-02-07T06:56:22.570Z,100011.91
2019-02-07T06:57:43.731Z,100012.99
2019-02-07T06:59:00.778Z,100013.63
2019-02-07T07:00:24.055Z,100013.90
2019-02-07T07:01:45.365Z,100014.14
2019-02-07T07:02:50.559Z,100019.69
2019-02-07T07:04:11.702Z,100017.07
2019-02-07T07:05:22.357Z,100025.59
2019-02-07T07:06:43.821Z,100020.13
2019-02-07T07:07:51.549Z,100023.95
2019-02-07T07:09:12.876Z,100024.06
2019-02-07T07:10:18.119Z,100019.24
2019-02-07T07:11:39.540Z,100016.03
2019-02-07T07:12:44.747Z,100020.74
2019-02-07T07:13:55.860Z,100016.84
2019-02-07T07:15:16.684Z,100023.63
2019-02-07T07:16:38.478Z,100021.13
2019-02-07T07:17:43.702Z,100015.39
2019-02-07T07:19:05.177Z,100019.42
2019-02-07T07:20:29.233Z,100012.90
2019-02-07T07:21:34.426Z,100013.47
2019-02-07T07:22:42.424Z,100009.53
2019-02-07T07:23:50.419Z,100014.03
2019-02-07T07:25:01.376Z,100019.10
2019-02-07T07:26:16.104Z,100017.88
2019-02-07T07:27:21.320Z,100019.42
2019-02-07T07:28:41.523Z,100021.27
2019-02-07T07:30:04.556Z,100016.35
2019-02-07T07:31:09.928Z,100010.30
2019-02-07T07:32:30.985Z,100005.85
2019-02-07T07:33:52.293Z,100011.91
2019-02-07T07:34:57.441Z,100011.67
2019-02-07T07:36:11.456Z,100001.59
2019-02-07T07:37:22.623Z,100005.14
2019-02-07T07:38:30.730Z,100012.33
2019-02-07T07:39:38.722Z,100009.34
2019-02-07T07:40:44.029Z,100009.11
2019-02-07T07:41:54.841Z,100011.59
2019-02-07T07:43:09.027Z,100015.46
2019-02-07T07:44:14.219Z,100006.99
2019-02-07T07:45:19.632Z,100009.83
2019-02-07T07:46:42.484Z,100009.83
2019-02-07T07:47:59.715Z,100012.66
2019-02-07T07:49:19.860Z,100011.05
2019-02-07T07:50:28.076Z,100011.95
2019-02-07T07:51:33.439Z,100010.58
2019-02-07T07:52:50.381Z,100018.56
2019-02-07T07:54:04.478Z,100013.98
2019-02-07T07:55:10.158Z,100016.45
2019-02-07T07:56:31.240Z,100014.33
2019-02-07T07:57:39.188Z,100018.45
2019-02-07T07:58:44.600Z,100018.20
2019-02-07T08:00:01.680Z,100026.20
2019-02-07T08:01:23.203Z,100016.36
2019-02-07T08:02:28.414Z,100028.22
2019-02-07T08:03:36.455Z,100019.75
2019-02-07T08:04:56.770Z,100025.00
2019-02-07T08:06:10.791Z,100024.77
2019-02-07T08:07:16.003Z,100018.80
2019-02-07T08:08:29.913Z,100022.67
2019-02-07T08:09:47.096Z,100023.77
2019-02-07T08:10:55.113Z,100022.16
2019-02-07T08:12:14.932Z,100023.63
2019-02-07T08:13:28.895Z,100024.42
2019-02-07T08:14:34.170Z,100032.17
2019-02-07T08:15:42.064Z,100041.77
2019-02-07T08:16:50.101Z,100033.06
2019-02-07T08:18:07.067Z,100040.48
2019-02-07T08:19:12.452Z,100035.09
2019-02-07T08:20:17.879Z,100037.83
2019-02-07T08:21:25.988Z,100037.59
2019-02-07T08:22:47.331Z,100041.47
2019-02-07T08:23:55.175Z,100038.16
2019-02-07T08:25:00.516Z,100037.67
2019-02-07T08:26:14.975Z,100035.23
2019-02-07T08:27:36.497Z,100037.73
2019-02-07T08:28:41.766Z,100038.86
2019-02-07T08:29:52.955Z,100044.11
2019-02-07T08:31:00.540Z,100039.19
2019-02-07T08:32:23.622Z,100037.58
2019-02-07T08:33:39.293Z,100042.25
2019-02-07T08:34:47.469Z,100033.55
2019-02-07T08:36:01.433Z,100038.79
2019-02-07T08:37:12.596Z,100035.57
2019-02-07T08:38:32.653Z,100038.07
2019-02-07T08:39:55.683Z,100042.75
2019-02-07T08:41:06.781Z,100042.75
2019-02-07T08:42:12.007Z,100041.70
2019-02-07T08:43:19.804Z,100053.23
2019-02-07T08:44:30.791Z,100048.84
2019-02-07T08:45:51.169Z,100044.02
2019-02-07T08:46:59.426Z,100047.23
2019-02-07T08:48:05.097Z,100054.41
2019-02-07T08:49:10.713Z,100045.95
2019-02-07T08:50:33.922Z,100045.14
2019-02-07T08:51:39.189Z,100042.73
2019-02-07T08:53:00.878Z,100038.38
2019-02-07T08:54:12.017Z,100039.74
2019-02-07T08:55:21.928Z,100043.38
2019-02-07T08:56:38.636Z,100047.80
2019-02-07T08:57:52.474Z,100050.87
2019-02-07T08:59:00.361Z,100045.95
2019-02-07T09:00:07.116Z,100048.13
2019-02-07T09:01:12.303Z,100041.61
2019-02-07T09:02:17.532Z,100042.46
2019-02-07T09:03:38.723Z,100043.02
2019-02-07T09:04:43.838Z,100040.85
2019-02-07T09:05:49.065Z,100042.78
2019-02-07T09:07:00.114Z,100045.61
2019-02-07T09:08:14.261Z,100050.77
2019-02-07T09:09:22.450Z,100046.73
2019-02-07T09:10:36.862Z,100046.25
2019-02-07T09:11:54.129Z,100053.09
2019-02-07T09:13:07.856Z,100058.58
2019-02-07T09:14:24.785Z,100062.93
2019-02-07T09:15:32.805Z,100066.55
2019-02-07T09:16:40.962Z,100071.80
2019-02-07T09:17:51.943Z,100073.97
2019-02-07T09:18:57.187Z,100074.94
2019-02-07T09:20:08.437Z,100085.00
2019-02-07T09:21:25.590Z,100085.57
2019-02-07T09:22:31.088Z,100077.92
2019-02-07T09:23:51.501Z,100074.37
2019-02-07T09:25:12.867Z,100069.18
2019-02-07T09:26:33.982Z,100077.97
2019-02-07T09:27:45.303Z,100069.27
2019-02-07T09:29:06.339Z,100074.17
2019-02-07T09:30:17.458Z,100073.94
2019-02-07T09:31:25.705Z,100072.32
2019-02-07T09:32:46.757Z,100070.95
2019-02-07T09:33:51.957Z,100080.30
2019-02-07T09:35:03.223Z,100075.38
2019-02-07T09:36:14.220Z,100070.47
2019-02-07T09:37:34.647Z,100077.64
2019-02-07T09:38:45.698Z,100081.75
2019-02-07T09:40:06.890Z,100072.97
2019-02-07T09:41:12.160Z,100082.31
2019-02-07T09:42:20.368Z,100078.52
2019-02-07T09:43:28.134Z,100085.45
2019-02-07T09:44:39.091Z,100079.65
2019-02-07T09:46:00.443Z,100079.16
2019-02-07T09:47:14.627Z,100092.53
2019-02-07T09:48:28.496Z,100087.14
2019-02-07T09:49:36.418Z,100088.50
2019-02-07T09:50:47.265Z,100089.60
2019-02-07T09:51:52.662Z,100096.72
2019-02-07T09:53:09.643Z,100092.61
2019-02-07T09:54:20.847Z,100086.05
2019-02-07T09:55:28.984Z,100082.51
2019-02-07T09:56:50.107Z,100090.73
2019-02-07T09:57:55.413Z,100086.13
2019-02-07T09:59:03.597Z,100090.24
2019-02-07T10:00:14.620Z,100100.95
2019-02-07T10:01:25.840Z,100101.20
2019-02-07T10:02:48.943Z,100091.13
2019-02-07T10:04:05.711Z,100091.13
2019-02-07T10:05:21.420Z,100091.69
2019-02-07T10:06:26.713Z,100090.64
2019-02-07T10:07:40.618Z,100092.25
2019-02-07T10:08:45.817Z,100092.81
2019-02-07T10:09:57.141Z,100086.28
2019-02-07T10:11:08.089Z,100093.63
2019-02-07T10:12:28.116Z,100088.70
2019-02-07T10:13:33.355Z,100090.39
2019-02-07T10:14:41.573Z,100097.73
2019-02-07T10:15:49.571Z,100102.40
2019-02-07T10:16:57.522Z,100104.33
2019-02-07T10:18:08.560Z,100102.72
2019-02-07T10:19:13.786Z,100107.06
2019-02-07T10:20:37.327Z,100101.59
2019-02-07T10:21:45.082Z,100102.96
2019-02-07T10:22:56.432Z,100106.27
2019-02-07T10:24:10.683Z,100115.28
2019-02-07T10:25:27.989Z,100110.61
2019-02-07T10:26:36.064Z,100116.09
2019-02-07T10:27:50.220Z,100111.42
2019-02-07T10:29:00.976Z,100112.78
2019-02-07T10:30:17.062Z,100113.59
2019-02-07T10:31:38.486Z,100108.44
2019-02-07T10:32:43.787Z,100114.40
2019-02-07T10:33:49.087Z,100115.20
2019-02-07T10:35:10.544Z,100114.89
2019-02-07T10:36:21.277Z,100114.89
2019-02-07T10:37:35.551Z,100112.95
2019-02-07T10:38:40.719Z,100109.66
2019-02-07T10:39:48.729Z,100113.77
2019-02-07T10:40:59.969Z,100110.78
2019-02-07T10:42:05.178Z,100108.84
2019-02-07T10:43:26.495Z,100108.04
2019-02-07T10:44:37.621Z,100109.16
2019-02-07T10:45:45.541Z,100100.47
2019-02-07T10:47:06.822Z,100106.75
2019-02-07T10:48:12.091Z,100102.96
2019-02-07T10:49:17.272Z,100097.73
2019-02-07T10:50:38.218Z,100106.19
2019-02-07T10:51:43.595Z,100113.03
2019-02-07T10:53:04.885Z,100114.96
2019-02-07T10:54:21.873Z,100114.40
2019-02-07T10:55:27.382Z,100107.31
2019-02-07T10:56:32.703Z,100112.55
2019-02-07T10:57:37.943Z,100115.53
2019-02-07T10:59:00.550Z,100107.88
2019-02-07T11:00:09.013Z,100111.17
2019-02-07T11:01:15.045Z,100109.80
2019-02-07T11:02:23.822Z,100117.78
2019-02-07T11:03:29.676Z,100114.48
2019-02-07T11:04:50.754Z,100104.89
2019-02-07T11:05:59.002Z,100109.32
2019-02-07T11:07:07.109Z,100102.47
2019-02-07T11:08:28.512Z,100103.36
2019-02-07T11:09:49.718Z,100105.21
2019-02-07T11:10:57.696Z,100101.67
2019-02-07T11:12:19.224Z,100101.74
2019-02-07T11:13:24.366Z,100104.41
2019-02-07T11:14:45.803Z,100102.23
2019-02-07T11:15:56.523Z,100112.30
2019-02-07T11:17:10.784Z,100098.36
2019-02-07T11:18:21.904Z,100103.59
2019-02-07T11:19:33.173Z,100113.11
2019-02-07T11:20:50.086Z,100115.04
2019-02-07T11:22:11.830Z,100104.89
2019-02-07T11:23:33.044Z,100098.05
2019-02-07T11:24:49.782Z,100108.68
2019-02-07T11:26:01.045Z,100101.03
2019-02-07T11:27:22.281Z,100098.78
2019-02-07T11:28:42.301Z,100100.07
2019-02-07T11:29:56.267Z,100092.98
2019-02-07T11:31:19.920Z,100106.59
2019-02-07T11:32:30.546Z,100087.98
2019-02-07T11:33:38.671Z,100088.80
2019-02-07T11:35:01.657Z,100097.81
2019-02-07T11:36:08.726Z,100089.36
2019-02-07T11:37:30.228Z,100085.49
2019-02-07T11:38:51.417Z,100091.53
2019-02-07T11:40:08.432Z,100088.80
2019-02-07T11:41:16.450Z,100092.09
2019-02-07T11:42:24.042Z,100087.98
2019-02-07T11:43:31.618Z,100089.36
2019-02-07T11:44:39.651Z,100082.27
2019-02-07T11:45:47.540Z,100086.94
2019-02-07T11:47:05.195Z,100089.67
2019-02-07T11:48:11.323Z,100086.70
2019-02-07T11:49:28.478Z,100091.37
2019-02-07T11:50:48.470Z,100091.13
2019-02-07T11:52:05.910Z,100092.17
2019-02-07T11:53:27.647Z,100092.17
2019-02-07T11:54:32.845Z,100088.06
2019-02-07T11:55:40.737Z,100082.02
2019-02-07T11:57:02.173Z,100085.89
2019-02-07T11:58:16.381Z,100098.45
2019-02-07T11:59:24.525Z,100086.13
2019-02-07T12:00:45.913Z,100077.43
2019-02-07T12:01:51.108Z,100085.64
2019-02-07T12:03:08.446Z,100090.00
2019-02-07T12:04:19.911Z,100084.84
2019-02-07T12:05:28.052Z,100086.28
2019-02-07T12:06:39.487Z,100077.51
2019-02-07T12:07:44.688Z,100084.67
2019-02-07T12:08:50.287Z,100086.28
2019-02-07T12:09:55.413Z,100086.28
2019-02-07T12:11:00.547Z,100075.09
2019-02-07T12:12:08.561Z,100072.11
2019-02-07T12:13:16.670Z,100081.45
2019-02-07T12:14:27.564Z,100077.34
2019-02-07T12:15:39.988Z,100073.55
2019-02-07T12:16:51.113Z,100075.48
2019-02-07T12:18:08.420Z,100076.86
2019-02-07T12:19:28.817Z,100069.73
2019-02-07T12:20:33.980Z,100071.94
2019-02-07T12:21:39.096Z,100077.95
2019-02-07T12:22:44.589Z,100070.02
2019-02-07T12:23:58.323Z,100076.86
2019-02-07T12:25:19.128Z,100075.48
2019-02-07T12:26:24.325Z,100068.64
2019-02-07T12:27:37.160Z,100071.37
2019-02-07T12:28:54.201Z,100063.97
2019-02-07T12:29:59.408Z,100063.16
2019-02-07T12:31:10.466Z,100065.91
2019-02-07T12:32:15.666Z,100059.06
2019-02-07T12:33:32.945Z,100062.04
2019-02-07T12:34:38.169Z,100057.94
2019-02-07T12:35:50.848Z,100064.22
2019-02-07T12:36:56.123Z,100068.00
2019-02-07T12:38:04.057Z,100062.52
2019-02-07T12:39:10.651Z,100058.42
2019-02-07T12:40:16.223Z,100063.33
2019-02-07T12:41:21.517Z,100063.09
2019-02-07T12:42:26.892Z,100068.80
2019-02-07T12:43:47.955Z,100069.61
2019-02-07T12:44:53.287Z,100065.27
2019-02-07T12:46:14.474Z,100068.00
2019-02-07T12:47:31.825Z,100059.22
2019-02-07T12:48:36.956Z,100070.50
2019-02-07T12:49:51.198Z,100068.88
2019-02-07T12:51:11.350Z,100063.65
2019-02-07T12:52:32.441Z,100074.04
2019-02-07T12:53:43.722Z,100070.74
2019-02-07T12:54:49.017Z,100065.27
2019-02-07T12:55:57.244Z,100063.65
2019-02-07T12:57:04.087Z,100064.45
2019-02-07T12:58:12.323Z,100063.89
2019-02-07T12:59:26.971Z,100067.76
2019-02-07T13:00:38.166Z,100067.20
2019-02-07T13:01:46.288Z,100060.43
2019-02-07T13:02:57.186Z,100063.73
2019-02-07T13:04:13.979Z,100065.62
2019-02-07T13:05:21.997Z,100065.36
2019-02-07T13:06:27.484Z,100066.73
2019-02-07T13:07:35.624Z,100067.53
2019-02-07T13:08:40.861Z,100067.05
2019-02-07T13:10:00.728Z,100055.53
2019-02-07T13:11:06.564Z,100060.20
2019-02-07T13:12:17.952Z,100057.78
2019-02-07T13:13:32.073Z,100059.63
2019-02-07T13:14:37.327Z,100061.57
2019-02-07T13:15:45.559Z,100062.12
2019-02-07T13:16:53.408Z,100057.22
2019-02-07T13:18:14.772Z,100059.39
2019-02-07T13:19:20.173Z,100058.02
2019-02-07T13:20:28.701Z,100058.51